createdAt,value
2018-11-01T00:01:43.427Z,4.77
2018-11-01T00:06:40.840Z,3.93
2018-11-01T00:11:38.265Z,4.40
2018-11-01T00:16:36.950Z,4.00
2018-11-01T00:21:34.373Z,4.50
2018-11-01T00:26:31.809Z,4.80
2018-11-01T00:31:29.235Z,4.73
2018-11-01T00:36:26.714Z,4.90
2018-11-01T00:41:24.104Z,4.50
2018-11-01T00:46:27.098Z,4.30
2018-11-01T00:51:24.507Z,4.70
2018-11-01T00:56:21.936Z,3.70
2018-11-01T01:01:19.368Z,3.73
2018-11-01T01:06:16.905Z,3.60
2018-11-01T01:11:14.357Z,4.27
2018-11-01T01:16:16.542Z,4.77
2018-11-01T01:21:13.968Z,3.50
2018-11-01T01:26:11.373Z,3.40
2018-11-01T01:31:08.798Z,3.90
2018-11-01T01:36:06.373Z,3.70
2018-11-01T01:41:03.803Z,4.27
2018-11-01T01:46:07.093Z,4.03
2018-11-01T01:51:04.640Z,4.50
2018-11-01T01:56:02.095Z,4.13
2018-11-01T02:00:59.521Z,3.60
2018-11-01T02:05:56.942Z,4.67
2018-11-01T02:10:54.363Z,3.80
2018-11-01T02:16:06.006Z,4.63
2018-11-01T02:21:03.522Z,4.80
2018-11-01T02:26:00.978Z,4.77
2018-11-01T02:30:58.405Z,5.07
2018-11-01T02:35:55.832Z,5.07
2018-11-01T02:40:53.284Z,5.20
2018-11-01T02:46:01.594Z,4.73
2018-11-01T02:50:59.064Z,4.40
2018-11-01T02:55:56.489Z,4.60
2018-11-01T03:00:53.922Z,4.60
2018-11-01T03:05:51.354Z,4.17
2018-11-01T03:10:48.773Z,3.50
2018-11-01T03:15:53.640Z,3.50
2018-11-01T03:20:51.224Z,3.33
2018-11-01T03:25:48.653Z,3.73
2018-11-01T03:30:46.104Z,3.03
2018-11-01T03:35:43.687Z,3.50
2018-11-01T03:40:41.144Z,4.00
2018-11-01T03:45:41.367Z,4.37
2018-11-01T03:50:38.992Z,3.57
2018-11-01T03:55:36.444Z,3.50
2018-11-01T04:00:33.860Z,3.53
2018-11-01T04:05:31.333Z,3.10
2018-11-01T04:10:28.755Z,3.47
2018-11-01T04:15:26.209Z,3.60
2018-11-01T04:20:23.630Z,3.90
2018-11-01T04:25:21.088Z,4.33
2018-11-01T04:30:18.776Z,3.67
2018-11-01T04:35:16.247Z,3.67
2018-11-01T04:40:13.688Z,3.90
2018-11-01T04:45:12.047Z,2.90
2018-11-01T04:50:10.789Z,3.10
2018-11-01T04:55:08.671Z,4.20
2018-11-01T05:00:08.381Z,3.83
2018-11-01T05:05:05.918Z,3.30
2018-11-01T05:10:03.371Z,4.33
2018-11-01T05:15:01.863Z,4.27
2018-11-01T05:20:00.292Z,4.60
2018-11-01T05:24:58.771Z,4.60
2018-11-01T05:29:56.450Z,4.97
2018-11-01T05:34:53.881Z,4.50
2018-11-01T05:39:51.340Z,3.53
2018-11-01T05:44:48.788Z,4.00
2018-11-01T05:49:46.235Z,4.40
2018-11-01T05:54:43.679Z,4.33
2018-11-01T05:59:41.400Z,4.37
2018-11-01T06:04:38.887Z,3.80
2018-11-01T06:09:36.332Z,4.20
2018-11-01T06:14:33.784Z,4.27
2018-11-01T06:19:31.244Z,4.07
2018-11-01T06:24:28.753Z,3.60
2018-11-01T06:29:26.287Z,4.27
2018-11-01T06:34:27.048Z,3.77
2018-11-01T06:39:24.565Z,3.57
2018-11-01T06:44:22.079Z,3.53
2018-11-01T06:49:19.992Z,4.90
2018-11-01T06:54:17.708Z,3.50
2018-11-01T06:59:15.556Z,3.73
2018-11-01T07:04:13.003Z,3.60
2018-11-01T07:09:12.176Z,4.10
2018-11-01T07:14:10.077Z,4.30
2018-11-01T07:19:07.737Z,4.07
2018-11-01T07:24:05.227Z,4.40
2018-11-01T07:29:02.767Z,3.90
2018-11-01T07:34:00.342Z,4.50
2018-11-01T07:38:57.784Z,4.07
2018-11-01T07:43:55.257Z,4.70
2018-11-01T07:48:52.712Z,3.90
2018-11-01T07:53:50.201Z,4.27
2018-11-01T07:58:47.722Z,3.83
2018-11-01T08:03:52.942Z,4.00
2018-11-01T08:08:50.773Z,4.10
2018-11-01T08:13:48.232Z,4.07
2018-11-01T08:18:45.744Z,4.20
2018-11-01T08:23:43.628Z,4.30
2018-11-01T08:28:41.509Z,4.53
2018-11-01T08:33:41.789Z,5.30
2018-11-01T08:38:39.298Z,4.47
2018-11-01T08:43:36.744Z,4.70
2018-11-01T08:48:34.277Z,4.20
2018-11-01T08:53:31.955Z,5.43
2018-11-01T08:58:29.443Z,5.60
2018-11-01T09:03:26.936Z,6.13
2018-11-01T09:08:24.393Z,5.20
2018-11-01T09:13:21.946Z,5.40
2018-11-01T09:18:19.327Z,3.37
2018-11-01T09:23:16.793Z,2.93
2018-11-01T09:28:14.245Z,2.60
2018-11-01T09:33:11.713Z,2.70
2018-11-01T09:38:09.144Z,2.40
2018-11-01T09:43:06.589Z,2.93
2018-11-01T09:48:05.638Z,2.67
2018-11-01T09:53:03.149Z,2.60
2018-11-01T09:58:00.951Z,2.47
2018-11-01T10:02:58.586Z,3.10
2018-11-01T10:07:56.239Z,3.03
2018-11-01T10:12:55.771Z,2.97
2018-11-01T10:17:53.967Z,3.20
2018-11-01T10:22:51.372Z,2.43
2018-11-01T10:27:51.095Z,3.00
2018-11-01T10:32:50.422Z,2.97
2018-11-01T10:37:48.311Z,2.90
2018-11-01T10:42:46.119Z,2.97
2018-11-01T10:47:44.047Z,3.03
2018-11-01T10:52:41.791Z,2.83
2018-11-01T10:57:39.514Z,2.77
2018-11-01T11:02:37.481Z,3.60
2018-11-01T11:07:35.248Z,2.80
2018-11-01T11:12:32.976Z,3.00
2018-11-01T11:17:30.436Z,2.60
2018-11-01T11:22:28.008Z,2.90
2018-11-01T11:27:25.821Z,4.00
2018-11-01T11:32:23.269Z,3.33
2018-11-01T11:37:20.791Z,3.30
2018-11-01T11:42:19.133Z,3.20
2018-11-01T11:47:16.719Z,3.70
2018-11-01T11:52:14.161Z,2.90
2018-11-01T11:57:11.822Z,3.73
2018-11-01T12:02:09.372Z,3.50
2018-11-01T12:07:06.936Z,2.80
2018-11-01T12:12:06.381Z,3.47
2018-11-01T12:17:12.991Z,3.97
2018-11-01T12:22:12.393Z,3.20
2018-11-01T12:27:11.506Z,3.67
2018-11-01T12:32:15.885Z,3.27
2018-11-01T12:37:18.626Z,3.97
2018-11-01T12:42:30.960Z,3.90
2018-11-01T12:47:41.623Z,4.00
2018-11-01T12:52:44.027Z,3.60
2018-11-01T12:57:43.520Z,3.30
2018-11-01T13:02:41.573Z,4.50
2018-11-01T13:07:38.982Z,3.70
2018-11-01T13:12:39.372Z,3.47
2018-11-01T13:17:39.316Z,4.10
2018-11-01T13:22:37.392Z,4.80
2018-11-01T13:27:34.999Z,3.80
2018-11-01T13:32:33.516Z,3.40
2018-11-01T13:37:31.080Z,3.80
2018-11-01T13:42:29.732Z,4.37
2018-11-01T13:47:27.376Z,3.40
2018-11-01T13:52:26.080Z,4.07
2018-11-01T13:57:24.142Z,4.20
2018-11-01T14:02:21.937Z,4.00
2018-11-01T14:07:19.823Z,4.87
2018-11-01T14:12:18.387Z,6.37
2018-11-01T14:17:17.258Z,6.77
2018-11-01T14:22:15.370Z,6.80
2018-11-01T14:27:13.600Z,6.10
2018-11-01T14:32:11.126Z,5.63
2018-11-01T14:37:09.725Z,6.20
2018-11-01T14:42:08.451Z,6.30
2018-11-01T14:47:08.698Z,6.33
2018-11-01T14:52:07.429Z,7.93
2018-11-01T14:57:05.587Z,8.03
2018-11-01T15:02:02.791Z,7.50
2018-11-01T15:07:01.864Z,8.27
2018-11-01T15:11:59.958Z,7.77
2018-11-01T15:17:02.963Z,7.80
2018-11-01T15:22:00.505Z,7.37
2018-11-01T15:26:59.187Z,7.50
2018-11-01T15:32:01.578Z,8.50
2018-11-01T15:37:00.060Z,9.67
2018-11-01T15:41:57.528Z,9.83
2018-11-01T15:47:01.595Z,9.50
2018-11-01T15:52:00.217Z,8.60
2018-11-01T15:56:59.708Z,8.40
2018-11-01T16:01:57.695Z,7.40
2018-11-01T16:06:56.984Z,9.40
2018-11-01T16:11:54.593Z,11.10
2018-11-01T16:16:52.084Z,10.10
2018-11-01T16:21:51.225Z,9.07
2018-11-01T16:26:48.879Z,9.93
2018-11-01T16:31:46.367Z,9.07
2018-11-01T16:36:44.041Z,9.50
2018-11-01T16:41:41.346Z,10.60
2018-11-01T16:46:40.371Z,10.33
2018-11-01T16:51:37.911Z,12.10
2018-11-01T16:56:35.352Z,10.67
2018-11-01T17:01:33.066Z,11.33
2018-11-01T17:06:30.684Z,11.50
2018-11-01T17:11:28.184Z,11.80
2018-11-01T17:16:26.901Z,12.63
2018-11-01T17:21:24.371Z,11.70
2018-11-01T17:26:21.864Z,13.10
2018-11-01T17:31:19.317Z,13.17
2018-11-01T17:36:16.790Z,15.37
2018-11-01T17:41:14.738Z,14.50
2018-11-01T17:46:22.987Z,12.83
2018-11-01T17:51:21.066Z,14.43
2018-11-01T17:56:18.467Z,13.07
2018-11-01T18:01:16.036Z,12.07
2018-11-01T18:06:13.492Z,11.87
2018-11-01T18:11:11.568Z,12.23
2018-11-01T18:16:16.280Z,12.00
2018-11-01T18:21:13.796Z,12.83
2018-11-01T18:26:11.275Z,12.10
2018-11-01T18:31:08.766Z,12.43
2018-11-01T18:36:06.255Z,12.10
2018-11-01T18:41:05.440Z,12.23
2018-11-01T18:46:14.717Z,11.03
2018-11-01T18:51:12.853Z,12.60
2018-11-01T18:56:10.357Z,12.97
2018-11-01T19:01:08.388Z,13.20
2018-11-01T19:06:05.844Z,12.70
2018-11-01T19:11:03.312Z,11.60
2018-11-01T19:16:10.543Z,11.10
2018-11-01T19:21:08.205Z,12.17
2018-11-01T19:26:05.710Z,11.87
2018-11-01T19:31:03.150Z,12.10
2018-11-01T19:36:00.708Z,12.23
2018-11-01T19:40:58.144Z,12.37
2018-11-01T19:45:57.508Z,12.67
2018-11-01T19:50:57.862Z,12.03
2018-11-01T19:56:01.868Z,12.83
2018-11-01T20:01:00.711Z,11.60
2018-11-01T20:06:00.288Z,11.60
2018-11-01T20:11:03.762Z,11.40
2018-11-01T20:16:03.316Z,12.00
2018-11-01T20:21:01.974Z,11.70
2018-11-01T20:25:59.515Z,10.80
2018-11-01T20:30:56.980Z,11.13
2018-11-01T20:35:54.462Z,12.37
2018-11-01T20:40:51.907Z,11.83
2018-11-01T20:45:58.825Z,10.70
2018-11-01T20:50:56.392Z,10.10
2018-11-01T20:56:04.192Z,10.37
2018-11-01T21:01:06.402Z,11.20
2018-11-01T21:06:11.484Z,10.67
2018-11-01T21:11:17.582Z,10.20
2018-11-01T21:16:20.044Z,10.03
2018-11-01T21:21:17.528Z,9.40
2018-11-01T21:26:14.976Z,9.53
2018-11-01T21:31:12.396Z,10.27
2018-11-01T21:36:09.852Z,7.90
2018-11-01T21:41:07.344Z,8.13
2018-11-01T21:46:11.691Z,8.30
2018-11-01T21:51:09.206Z,8.77
2018-11-01T21:56:06.640Z,8.93
2018-11-01T22:01:04.469Z,8.00
2018-11-01T22:06:01.975Z,8.00
2018-11-01T22:10:59.419Z,8.50
2018-11-01T22:15:59.779Z,7.60
2018-11-01T22:20:57.400Z,7.33
2018-11-01T22:25:54.930Z,7.90
2018-11-01T22:30:52.352Z,7.87
2018-11-01T22:35:49.857Z,7.87
2018-11-01T22:40:47.313Z,7.87
2018-11-01T22:45:45.452Z,8.73
2018-11-01T22:50:43.191Z,7.80
2018-11-01T22:55:40.632Z,8.40
2018-11-01T23:00:43.109Z,8.13
2018-11-01T23:05:40.554Z,9.43
2018-11-01T23:10:38.137Z,8.73
2018-11-01T23:15:35.583Z,8.50
2018-11-01T23:20:33.006Z,7.83
2018-11-01T23:25:30.534Z,7.80
2018-11-01T23:30:27.976Z,9.20
2018-11-01T23:35:25.403Z,8.40
2018-11-01T23:40:29.511Z,8.73
2018-11-01T23:45:32.502Z,9.30
2018-11-01T23:51:07.057Z,8.60
2018-11-01T23:56:04.502Z,8.27
